Nur fliegen ist schöner ....

Willkommen beim Flugservice Bautzen GmbH

Wir sind eine nach europäischen Richtlinien zugelassene Flugschule und lizenziertes Luftfahrtunternehmen. Bei uns können sie nicht nur Rundflüge über die Oberlausitz oder Sachsen buchen, sondern in unserer Flugschule selber das Fliegen erlernen. Erfahrene Fluglehrer stehen Ihnen dabei zur Seite.

Wir bieten Ihnen außerdem spezielle Flüge zur Vermessung oder Fotoflüge für Luftbildaufnahmen an. In Zusammenarbeit mit dem Fallschirmsportclub Dresden und dem Cottbuser Fallschirmsportclub setzen wir am Flugplatz Bautzen und Neuhausen Fallschirmspringer ab.
Schauen Sie sich in Ruhe bei uns um und wenn Sie Fragen haben oder weitere Informationen benötigen, scheuen Sie sich nicht Kontakt mit uns aufzunehmen.

Gutscheine für Rundflüge und Tandemsprünge können Sie ganz leicht auch online in unserem Shop erwerben.

Terminkalender

Letzter Monat August 2020 Nächster Monat
Mo Di Mi Do Fr Sa So
week 31 1 2
week 32 3 4 5 6 7 8 9
week 33 10 11 12 13 14 15 16
week 34 17 18 19 20 21 22 23
week 35 24 25 26 27 28 29 30
week 36 31

Flugwetterinfo

[Quelle: ADDS]
METAR
EDDC 080850Z 25003KT 190V320 CAVOK 31/14 Q1021 NOSIG =
EDDC 080500Z 0806/0906 VRB03KT CAVOK BECMG 0808/0811 08006KT BECMG 0819/0821 16006KT
TAF
EDDC 080500Z 0806/0906 VRB03KT CAVOK BECMG 0808/0811 08006KT BECMG 0819/0821 16006KT =
SR / SS: 03:38 / 18:36 UTC (EDAB Flugplatz Bautzen 2020-08-08)

Öffnungszeiten

des Flugplatzes Bautzen erfahren Sie hier:

flugplatz bautzen logo
Flugservice Bautzen GmbH, Kornmarkt 34, 02625 Bautzen  Telefon: +49 (3591) 211105, Telefax: +49 (3591) 274512, E-Mail:  flugservice(at)fsbautzen.de